sensor_id;sensor_type;location;lat;lon;timestamp;P1;durP1;ratioP1;P2;durP2;ratioP2
5133;SDS011;2585;48.696;10.066;2022-10-26T00:01:04;12.93;;;7.23;;
5133;SDS011;2585;48.696;10.066;2022-10-26T00:03:35;11.70;;;6.33;;
5133;SDS011;2585;48.696;10.066;2022-10-26T00:06:04;8.70;;;6.23;;
5133;SDS011;2585;48.696;10.066;2022-10-26T00:08:36;20.80;;;7.47;;
5133;SDS011;2585;48.696;10.066;2022-10-26T00:11:03;7.80;;;5.53;;
5133;SDS011;2585;48.696;10.066;2022-10-26T00:13:31;8.90;;;5.20;;
5133;SDS011;2585;48.696;10.066;2022-10-26T00:15:58;6.50;;;5.20;;
5133;SDS011;2585;48.696;10.066;2022-10-26T00:18:30;8.80;;;5.60;;
5133;SDS011;2585;48.696;10.066;2022-10-26T00:21:01;9.83;;;6.30;;
5133;SDS011;2585;48.696;10.066;2022-10-26T00:23:29;10.60;;;5.90;;
5133;SDS011;2585;48.696;10.066;2022-10-26T00:25:56;8.57;;;5.27;;
5133;SDS011;2585;48.696;10.066;2022-10-26T00:28:23;6.93;;;4.30;;
5133;SDS011;2585;48.696;10.066;2022-10-26T00:30:51;11.93;;;5.10;;
5133;SDS011;2585;48.696;10.066;2022-10-26T00:33:18;8.00;;;4.67;;
5133;SDS011;2585;48.696;10.066;2022-10-26T00:35:48;10.67;;;4.67;;
5133;SDS011;2585;48.696;10.066;2022-10-26T00:38:19;6.60;;;4.10;;
5133;SDS011;2585;48.696;10.066;2022-10-26T00:40:46;8.53;;;3.90;;
5133;SDS011;2585;48.696;10.066;2022-10-26T00:43:14;8.77;;;3.33;;
5133;SDS011;2585;48.696;10.066;2022-10-26T00:45:59;3.47;;;2.93;;
5133;SDS011;2585;48.696;10.066;2022-10-26T00:48:28;11.60;;;3.63;;
5133;SDS011;2585;48.696;10.066;2022-10-26T00:51:01;8.63;;;3.10;;
5133;SDS011;2585;48.696;10.066;2022-10-26T00:53:33;15.63;;;3.60;;
5133;SDS011;2585;48.696;10.066;2022-10-26T00:56:01;7.37;;;3.07;;
5133;SDS011;2585;48.696;10.066;2022-10-26T00:58:28;7.00;;;3.17;;
5133;SDS011;2585;48.696;10.066;2022-10-26T01:00:55;7.53;;;2.33;;
5133;SDS011;2585;48.696;10.066;2022-10-26T01:03:22;4.40;;;2.57;;
5133;SDS011;2585;48.696;10.066;2022-10-26T01:05:54;6.23;;;3.00;;
5133;SDS011;2585;48.696;10.066;2022-10-26T01:08:22;2.97;;;2.33;;
5133;SDS011;2585;48.696;10.066;2022-10-26T01:10:50;4.17;;;3.40;;
5133;SDS011;2585;48.696;10.066;2022-10-26T01:13:17;15.53;;;4.03;;
5133;SDS011;2585;48.696;10.066;2022-10-26T01:21:59;7.70;;;4.60;;
5133;SDS011;2585;48.696;10.066;2022-10-26T01:24:34;7.67;;;4.30;;
5133;SDS011;2585;48.696;10.066;2022-10-26T01:35:50;17.90;;;3.23;;
5133;SDS011;2585;48.696;10.066;2022-10-26T01:41:01;7.77;;;3.20;;
5133;SDS011;2585;48.696;10.066;2022-10-26T01:43:38;5.00;;;3.70;;
5133;SDS011;2585;48.696;10.066;2022-10-26T01:46:08;7.77;;;3.50;;
5133;SDS011;2585;48.696;10.066;2022-10-26T01:48:36;5.20;;;3.30;;
5133;SDS011;2585;48.696;10.066;2022-10-26T01:51:05;6.50;;;2.53;;
5133;SDS011;2585;48.696;10.066;2022-10-26T01:53:34;5.30;;;2.60;;
5133;SDS011;2585;48.696;10.066;2022-10-26T01:56:01;3.63;;;2.60;;
5133;SDS011;2585;48.696;10.066;2022-10-26T02:01:34;9.93;;;2.07;;
5133;SDS011;2585;48.696;10.066;2022-10-26T02:07:23;4.83;;;2.27;;
5133;SDS011;2585;48.696;10.066;2022-10-26T02:13:06;2.40;;;2.20;;
5133;SDS011;2585;48.696;10.066;2022-10-26T02:20:55;7.50;;;4.13;;
5133;SDS011;2585;48.696;10.066;2022-10-26T02:23:28;7.50;;;3.80;;
5133;SDS011;2585;48.696;10.066;2022-10-26T02:25:58;7.43;;;3.80;;
5133;SDS011;2585;48.696;10.066;2022-10-26T02:28:30;4.43;;;3.77;;
5133;SDS011;2585;48.696;10.066;2022-10-26T02:31:01;7.70;;;3.63;;
5133;SDS011;2585;48.696;10.066;2022-10-26T02:33:32;4.17;;;3.60;;
5133;SDS011;2585;48.696;10.066;2022-10-26T02:36:07;6.60;;;3.97;;
5133;SDS011;2585;48.696;10.066;2022-10-26T02:38:38;6.80;;;4.40;;
5133;SDS011;2585;48.696;10.066;2022-10-26T02:41:06;6.27;;;3.63;;
5133;SDS011;2585;48.696;10.066;2022-10-26T02:43:37;15.33;;;4.00;;
5133;SDS011;2585;48.696;10.066;2022-10-26T02:46:45;4.07;;;3.67;;
5133;SDS011;2585;48.696;10.066;2022-10-26T02:49:12;5.13;;;3.60;;
5133;SDS011;2585;48.696;10.066;2022-10-26T02:51:41;15.87;;;4.37;;
5133;SDS011;2585;48.696;10.066;2022-10-26T02:54:58;8.50;;;3.27;;
5133;SDS011;2585;48.696;10.066;2022-10-26T02:57:28;3.57;;;3.27;;
5133;SDS011;2585;48.696;10.066;2022-10-26T03:00:08;4.50;;;3.73;;
5133;SDS011;2585;48.696;10.066;2022-10-26T03:02:42;9.33;;;3.33;;
5133;SDS011;2585;48.696;10.066;2022-10-26T03:05:24;8.20;;;3.70;;
5133;SDS011;2585;48.696;10.066;2022-10-26T03:07:53;5.43;;;3.40;;
5133;SDS011;2585;48.696;10.066;2022-10-26T03:10:20;14.47;;;3.97;;
5133;SDS011;2585;48.696;10.066;2022-10-26T03:12:48;5.67;;;3.50;;
5133;SDS011;2585;48.696;10.066;2022-10-26T03:15:15;8.90;;;3.47;;
5133;SDS011;2585;48.696;10.066;2022-10-26T03:17:42;4.93;;;3.13;;
5133;SDS011;2585;48.696;10.066;2022-10-26T03:20:09;5.00;;;2.77;;
5133;SDS011;2585;48.696;10.066;2022-10-26T03:22:36;5.80;;;3.13;;
5133;SDS011;2585;48.696;10.066;2022-10-26T03:25:03;6.33;;;3.30;;
5133;SDS011;2585;48.696;10.066;2022-10-26T03:27:30;3.70;;;2.90;;
5133;SDS011;2585;48.696;10.066;2022-10-26T03:29:57;6.00;;;3.20;;
5133;SDS011;2585;48.696;10.066;2022-10-26T03:32:24;10.63;;;3.80;;
5133;SDS011;2585;48.696;10.066;2022-10-26T03:34:51;7.90;;;4.13;;
5133;SDS011;2585;48.696;10.066;2022-10-26T03:37:17;5.60;;;3.47;;
5133;SDS011;2585;48.696;10.066;2022-10-26T03:39:44;9.37;;;3.63;;
5133;SDS011;2585;48.696;10.066;2022-10-26T03:42:11;4.00;;;3.20;;
5133;SDS011;2585;48.696;10.066;2022-10-26T03:44:37;9.07;;;4.00;;
5133;SDS011;2585;48.696;10.066;2022-10-26T03:47:04;8.03;;;3.60;;
5133;SDS011;2585;48.696;10.066;2022-10-26T03:49:31;5.97;;;4.13;;
5133;SDS011;2585;48.696;10.066;2022-10-26T03:51:58;6.80;;;3.60;;
5133;SDS011;2585;48.696;10.066;2022-10-26T03:54:24;7.00;;;3.83;;
5133;SDS011;2585;48.696;10.066;2022-10-26T03:56:51;7.27;;;3.73;;
5133;SDS011;2585;48.696;10.066;2022-10-26T03:59:20;22.73;;;4.00;;
5133;SDS011;2585;48.696;10.066;2022-10-26T04:01:47;4.90;;;3.47;;
5133;SDS011;2585;48.696;10.066;2022-10-26T04:04:19;7.00;;;4.00;;
5133;SDS011;2585;48.696;10.066;2022-10-26T04:06:46;4.70;;;3.30;;
5133;SDS011;2585;48.696;10.066;2022-10-26T04:09:13;3.70;;;3.07;;
5133;SDS011;2585;48.696;10.066;2022-10-26T04:11:39;4.73;;;3.33;;
5133;SDS011;2585;48.696;10.066;2022-10-26T04:14:06;8.40;;;4.00;;
5133;SDS011;2585;48.696;10.066;2022-10-26T04:16:33;5.27;;;3.70;;
5133;SDS011;2585;48.696;10.066;2022-10-26T04:18:59;17.33;;;4.67;;
5133;SDS011;2585;48.696;10.066;2022-10-26T04:21:26;7.57;;;4.87;;
5133;SDS011;2585;48.696;10.066;2022-10-26T04:23:53;9.23;;;5.27;;
5133;SDS011;2585;48.696;10.066;2022-10-26T04:26:20;9.40;;;4.70;;
5133;SDS011;2585;48.696;10.066;2022-10-26T04:28:47;6.60;;;4.40;;
5133;SDS011;2585;48.696;10.066;2022-10-26T04:31:13;6.73;;;3.73;;
5133;SDS011;2585;48.696;10.066;2022-10-26T04:33:40;5.90;;;3.90;;
5133;SDS011;2585;48.696;10.066;2022-10-26T04:36:07;8.30;;;4.10;;
5133;SDS011;2585;48.696;10.066;2022-10-26T04:38:35;8.20;;;3.97;;
5133;SDS011;2585;48.696;10.066;2022-10-26T04:41:01;8.40;;;3.90;;
5133;SDS011;2585;48.696;10.066;2022-10-26T04:43:28;7.37;;;4.20;;
5133;SDS011;2585;48.696;10.066;2022-10-26T04:45:58;4.53;;;3.53;;
5133;SDS011;2585;48.696;10.066;2022-10-26T04:48:25;8.37;;;3.60;;
5133;SDS011;2585;48.696;10.066;2022-10-26T04:50:51;6.97;;;3.60;;
5133;SDS011;2585;48.696;10.066;2022-10-26T04:53:18;5.53;;;3.30;;
5133;SDS011;2585;48.696;10.066;2022-10-26T04:55:45;6.50;;;3.50;;
5133;SDS011;2585;48.696;10.066;2022-10-26T04:58:11;9.37;;;2.83;;
5133;SDS011;2585;48.696;10.066;2022-10-26T05:00:38;7.93;;;3.87;;
5133;SDS011;2585;48.696;10.066;2022-10-26T05:03:05;5.93;;;3.40;;
5133;SDS011;2585;48.696;10.066;2022-10-26T05:05:33;6.30;;;3.27;;
5133;SDS011;2585;48.696;10.066;2022-10-26T05:08:01;4.97;;;4.00;;
5133;SDS011;2585;48.696;10.066;2022-10-26T05:10:28;11.50;;;4.00;;
5133;SDS011;2585;48.696;10.066;2022-10-26T05:12:56;7.30;;;4.30;;
5133;SDS011;2585;48.696;10.066;2022-10-26T05:15:24;18.70;;;5.23;;
5133;SDS011;2585;48.696;10.066;2022-10-26T05:18:09;17.20;;;7.47;;
5133;SDS011;2585;48.696;10.066;2022-10-26T05:20:36;18.17;;;6.13;;
5133;SDS011;2585;48.696;10.066;2022-10-26T05:23:04;19.03;;;6.33;;
5133;SDS011;2585;48.696;10.066;2022-10-26T05:25:34;11.97;;;5.63;;
5133;SDS011;2585;48.696;10.066;2022-10-26T05:28:05;11.07;;;5.83;;
5133;SDS011;2585;48.696;10.066;2022-10-26T05:30:34;12.93;;;5.10;;
5133;SDS011;2585;48.696;10.066;2022-10-26T05:33:01;10.07;;;5.23;;
5133;SDS011;2585;48.696;10.066;2022-10-26T05:35:28;9.30;;;4.77;;
5133;SDS011;2585;48.696;10.066;2022-10-26T05:37:56;14.57;;;4.97;;
5133;SDS011;2585;48.696;10.066;2022-10-26T05:40:23;9.53;;;4.70;;
5133;SDS011;2585;48.696;10.066;2022-10-26T05:42:50;8.80;;;5.37;;
5133;SDS011;2585;48.696;10.066;2022-10-26T05:45:18;8.50;;;5.43;;
5133;SDS011;2585;48.696;10.066;2022-10-26T05:47:45;11.70;;;5.20;;
5133;SDS011;2585;48.696;10.066;2022-10-26T05:50:13;10.73;;;5.50;;
5133;SDS011;2585;48.696;10.066;2022-10-26T05:52:40;21.57;;;5.80;;
5133;SDS011;2585;48.696;10.066;2022-10-26T05:55:08;12.43;;;5.10;;
5133;SDS011;2585;48.696;10.066;2022-10-26T05:57:37;7.47;;;4.87;;
5133;SDS011;2585;48.696;10.066;2022-10-26T06:00:07;6.43;;;4.27;;
5133;SDS011;2585;48.696;10.066;2022-10-26T06:05:08;12.50;;;5.20;;
5133;SDS011;2585;48.696;10.066;2022-10-26T06:07:36;9.60;;;5.50;;
5133;SDS011;2585;48.696;10.066;2022-10-26T06:10:03;8.73;;;5.20;;
5133;SDS011;2585;48.696;10.066;2022-10-26T06:12:30;8.67;;;5.20;;
5133;SDS011;2585;48.696;10.066;2022-10-26T06:14:57;14.77;;;7.00;;
5133;SDS011;2585;48.696;10.066;2022-10-26T06:20:42;10.23;;;6.40;;
5133;SDS011;2585;48.696;10.066;2022-10-26T06:31:20;9.53;;;7.33;;
5133;SDS011;2585;48.696;10.066;2022-10-26T06:33:47;10.50;;;8.00;;
5133;SDS011;2585;48.696;10.066;2022-10-26T06:39:09;13.53;;;8.80;;
5133;SDS011;2585;48.696;10.066;2022-10-26T06:41:37;11.73;;;7.70;;
5133;SDS011;2585;48.696;10.066;2022-10-26T06:44:04;11.23;;;8.00;;
5133;SDS011;2585;48.696;10.066;2022-10-26T06:46:47;9.50;;;7.10;;
5133;SDS011;2585;48.696;10.066;2022-10-26T06:52:15;15.20;;;8.13;;
5133;SDS011;2585;48.696;10.066;2022-10-26T06:57:17;13.03;;;9.40;;
5133;SDS011;2585;48.696;10.066;2022-10-26T06:59:55;13.47;;;8.37;;
5133;SDS011;2585;48.696;10.066;2022-10-26T07:02:26;14.17;;;8.70;;
5133;SDS011;2585;48.696;10.066;2022-10-26T07:04:53;11.10;;;7.80;;
5133;SDS011;2585;48.696;10.066;2022-10-26T07:07:20;14.20;;;8.50;;
5133;SDS011;2585;48.696;10.066;2022-10-26T07:09:49;13.03;;;9.27;;
5133;SDS011;2585;48.696;10.066;2022-10-26T07:12:16;12.37;;;8.53;;
5133;SDS011;2585;48.696;10.066;2022-10-26T07:14:43;11.03;;;8.83;;
5133;SDS011;2585;48.696;10.066;2022-10-26T07:17:10;17.83;;;9.60;;
5133;SDS011;2585;48.696;10.066;2022-10-26T07:19:37;12.93;;;9.07;;
5133;SDS011;2585;48.696;10.066;2022-10-26T07:22:05;13.60;;;9.53;;
5133;SDS011;2585;48.696;10.066;2022-10-26T07:24:32;19.87;;;8.77;;
5133;SDS011;2585;48.696;10.066;2022-10-26T07:26:59;15.77;;;9.40;;
5133;SDS011;2585;48.696;10.066;2022-10-26T07:29:26;17.73;;;9.60;;
5133;SDS011;2585;48.696;10.066;2022-10-26T07:31:53;13.70;;;7.90;;
5133;SDS011;2585;48.696;10.066;2022-10-26T07:34:24;14.83;;;7.77;;
5133;SDS011;2585;48.696;10.066;2022-10-26T07:36:51;15.47;;;8.07;;
5133;SDS011;2585;48.696;10.066;2022-10-26T07:39:18;9.93;;;7.40;;
5133;SDS011;2585;48.696;10.066;2022-10-26T07:41:45;17.27;;;8.10;;
5133;SDS011;2585;48.696;10.066;2022-10-26T07:44:12;11.70;;;7.90;;
5133;SDS011;2585;48.696;10.066;2022-10-26T07:46:39;11.93;;;7.83;;
5133;SDS011;2585;48.696;10.066;2022-10-26T07:49:05;21.40;;;9.00;;
5133;SDS011;2585;48.696;10.066;2022-10-26T07:51:32;14.10;;;8.40;;
5133;SDS011;2585;48.696;10.066;2022-10-26T07:53:59;8.77;;;7.17;;
5133;SDS011;2585;48.696;10.066;2022-10-26T07:56:26;13.97;;;7.40;;
5133;SDS011;2585;48.696;10.066;2022-10-26T07:58:54;16.17;;;9.13;;
5133;SDS011;2585;48.696;10.066;2022-10-26T08:01:21;13.83;;;9.37;;
5133;SDS011;2585;48.696;10.066;2022-10-26T08:03:50;18.50;;;8.63;;
5133;SDS011;2585;48.696;10.066;2022-10-26T08:06:19;9.70;;;8.30;;
5133;SDS011;2585;48.696;10.066;2022-10-26T08:08:46;14.63;;;9.03;;
5133;SDS011;2585;48.696;10.066;2022-10-26T08:11:14;12.23;;;9.03;;
5133;SDS011;2585;48.696;10.066;2022-10-26T08:13:41;12.10;;;9.40;;
5133;SDS011;2585;48.696;10.066;2022-10-26T08:16:08;13.57;;;8.70;;
5133;SDS011;2585;48.696;10.066;2022-10-26T08:18:35;13.67;;;8.50;;
5133;SDS011;2585;48.696;10.066;2022-10-26T08:21:03;14.73;;;8.67;;
5133;SDS011;2585;48.696;10.066;2022-10-26T08:23:38;19.20;;;9.43;;
5133;SDS011;2585;48.696;10.066;2022-10-26T08:26:06;11.93;;;8.10;;
5133;SDS011;2585;48.696;10.066;2022-10-26T08:28:34;15.57;;;8.90;;
5133;SDS011;2585;48.696;10.066;2022-10-26T08:31:01;14.77;;;8.13;;
5133;SDS011;2585;48.696;10.066;2022-10-26T08:33:27;9.90;;;7.70;;
5133;SDS011;2585;48.696;10.066;2022-10-26T08:35:55;10.60;;;7.93;;
5133;SDS011;2585;48.696;10.066;2022-10-26T08:38:22;10.80;;;7.03;;
5133;SDS011;2585;48.696;10.066;2022-10-26T08:40:50;12.97;;;8.00;;
5133;SDS011;2585;48.696;10.066;2022-10-26T08:46:11;15.53;;;8.73;;
5133;SDS011;2585;48.696;10.066;2022-10-26T08:48:42;10.70;;;7.67;;
5133;SDS011;2585;48.696;10.066;2022-10-26T08:51:14;21.33;;;7.97;;
5133;SDS011;2585;48.696;10.066;2022-10-26T08:56:39;11.80;;;7.10;;
5133;SDS011;2585;48.696;10.066;2022-10-26T09:01:51;19.63;;;8.17;;
5133;SDS011;2585;48.696;10.066;2022-10-26T09:04:20;8.33;;;6.10;;
5133;SDS011;2585;48.696;10.066;2022-10-26T09:06:58;11.00;;;6.90;;
5133;SDS011;2585;48.696;10.066;2022-10-26T09:09:45;13.43;;;6.83;;
5133;SDS011;2585;48.696;10.066;2022-10-26T09:17:41;9.43;;;6.50;;
5133;SDS011;2585;48.696;10.066;2022-10-26T09:25:59;15.80;;;9.10;;
5133;SDS011;2585;48.696;10.066;2022-10-26T09:28:28;18.00;;;7.70;;
5133;SDS011;2585;48.696;10.066;2022-10-26T09:30:59;15.67;;;7.83;;
5133;SDS011;2585;48.696;10.066;2022-10-26T09:33:28;10.20;;;6.80;;
5133;SDS011;2585;48.696;10.066;2022-10-26T09:36:02;13.43;;;6.80;;
5133;SDS011;2585;48.696;10.066;2022-10-26T09:38:43;14.03;;;6.80;;
5133;SDS011;2585;48.696;10.066;2022-10-26T09:41:37;13.80;;;6.47;;
5133;SDS011;2585;48.696;10.066;2022-10-26T09:44:17;10.03;;;6.80;;
5133;SDS011;2585;48.696;10.066;2022-10-26T09:46:59;8.90;;;5.40;;
5133;SDS011;2585;48.696;10.066;2022-10-26T09:52:09;6.87;;;3.90;;
5133;SDS011;2585;48.696;10.066;2022-10-26T09:54:41;8.60;;;4.50;;
5133;SDS011;2585;48.696;10.066;2022-10-26T09:57:08;5.43;;;3.93;;
5133;SDS011;2585;48.696;10.066;2022-10-26T09:59:40;6.30;;;3.93;;
5133;SDS011;2585;48.696;10.066;2022-10-26T10:02:30;6.67;;;3.90;;
5133;SDS011;2585;48.696;10.066;2022-10-26T10:05:01;3.63;;;3.20;;
5133;SDS011;2585;48.696;10.066;2022-10-26T10:08:09;7.23;;;3.23;;
5133;SDS011;2585;48.696;10.066;2022-10-26T10:10:57;7.33;;;3.10;;
5133;SDS011;2585;48.696;10.066;2022-10-26T10:13:39;6.30;;;3.10;;
5133;SDS011;2585;48.696;10.066;2022-10-26T10:16:20;3.90;;;2.50;;
5133;SDS011;2585;48.696;10.066;2022-10-26T10:18:58;6.50;;;3.57;;
5133;SDS011;2585;48.696;10.066;2022-10-26T10:21:35;6.73;;;3.50;;
5133;SDS011;2585;48.696;10.066;2022-10-26T10:26:54;7.83;;;5.47;;
5133;SDS011;2585;48.696;10.066;2022-10-26T10:29:24;8.90;;;5.00;;
5133;SDS011;2585;48.696;10.066;2022-10-26T10:31:55;6.20;;;4.60;;
5133;SDS011;2585;48.696;10.066;2022-10-26T10:34:24;9.83;;;5.13;;
5133;SDS011;2585;48.696;10.066;2022-10-26T10:36:51;11.37;;;5.03;;
5133;SDS011;2585;48.696;10.066;2022-10-26T10:39:27;15.53;;;3.13;;
5133;SDS011;2585;48.696;10.066;2022-10-26T10:42:04;5.60;;;3.30;;
5133;SDS011;2585;48.696;10.066;2022-10-26T10:44:38;10.53;;;2.40;;
5133;SDS011;2585;48.696;10.066;2022-10-26T10:47:05;8.00;;;2.63;;
5133;SDS011;2585;48.696;10.066;2022-10-26T10:49:32;6.53;;;2.80;;
5133;SDS011;2585;48.696;10.066;2022-10-26T10:51:59;9.57;;;2.10;;
5133;SDS011;2585;48.696;10.066;2022-10-26T11:00:31;7.37;;;2.80;;
5133;SDS011;2585;48.696;10.066;2022-10-26T11:07:57;6.70;;;2.23;;
5133;SDS011;2585;48.696;10.066;2022-10-26T11:10:31;3.13;;;2.00;;
5133;SDS011;2585;48.696;10.066;2022-10-26T11:13:04;5.90;;;2.00;;
5133;SDS011;2585;48.696;10.066;2022-10-26T11:15:36;5.07;;;2.20;;
5133;SDS011;2585;48.696;10.066;2022-10-26T11:18:12;3.23;;;1.90;;
5133;SDS011;2585;48.696;10.066;2022-10-26T11:20:50;8.70;;;2.80;;
5133;SDS011;2585;48.696;10.066;2022-10-26T11:23:40;7.03;;;2.33;;
5133;SDS011;2585;48.696;10.066;2022-10-26T11:26:14;11.17;;;2.27;;
5133;SDS011;2585;48.696;10.066;2022-10-26T11:28:57;4.73;;;2.50;;
5133;SDS011;2585;48.696;10.066;2022-10-26T11:31:46;10.10;;;2.50;;
5133;SDS011;2585;48.696;10.066;2022-10-26T11:37:05;9.87;;;2.67;;
5133;SDS011;2585;48.696;10.066;2022-10-26T11:39:43;10.70;;;2.50;;
5133;SDS011;2585;48.696;10.066;2022-10-26T11:42:23;9.63;;;2.77;;
5133;SDS011;2585;48.696;10.066;2022-10-26T11:47:47;6.60;;;2.13;;
5133;SDS011;2585;48.696;10.066;2022-10-26T11:50:24;5.97;;;2.30;;
5133;SDS011;2585;48.696;10.066;2022-10-26T11:53:37;8.60;;;2.20;;
5133;SDS011;2585;48.696;10.066;2022-10-26T11:55:48;9.63;;;2.70;;
5133;SDS011;2585;48.696;10.066;2022-10-26T11:58:21;10.93;;;2.27;;
5133;SDS011;2585;48.696;10.066;2022-10-26T12:00:51;9.60;;;2.47;;
5133;SDS011;2585;48.696;10.066;2022-10-26T12:03:31;6.60;;;2.80;;
5133;SDS011;2585;48.696;10.066;2022-10-26T12:06:01;8.60;;;2.30;;
5133;SDS011;2585;48.696;10.066;2022-10-26T12:08:35;5.37;;;1.97;;
5133;SDS011;2585;48.696;10.066;2022-10-26T12:11:24;5.47;;;2.67;;
5133;SDS011;2585;48.696;10.066;2022-10-26T12:19:34;7.70;;;2.30;;
5133;SDS011;2585;48.696;10.066;2022-10-26T12:22:12;5.67;;;2.33;;
5133;SDS011;2585;48.696;10.066;2022-10-26T12:24:44;7.20;;;2.13;;
5133;SDS011;2585;48.696;10.066;2022-10-26T12:37:56;10.97;;;2.50;;
5133;SDS011;2585;48.696;10.066;2022-10-26T12:45:41;6.90;;;2.87;;
5133;SDS011;2585;48.696;10.066;2022-10-26T12:48:38;7.87;;;2.03;;
5133;SDS011;2585;48.696;10.066;2022-10-26T12:53:58;6.23;;;2.20;;
5133;SDS011;2585;48.696;10.066;2022-10-26T13:05:28;19.43;;;3.77;;
5133;SDS011;2585;48.696;10.066;2022-10-26T13:08:07;4.53;;;2.40;;
5133;SDS011;2585;48.696;10.066;2022-10-26T13:10:37;5.10;;;2.30;;
5133;SDS011;2585;48.696;10.066;2022-10-26T13:13:18;6.20;;;2.90;;
5133;SDS011;2585;48.696;10.066;2022-10-26T13:15:52;7.23;;;3.00;;
5133;SDS011;2585;48.696;10.066;2022-10-26T13:18:20;13.63;;;2.17;;
5133;SDS011;2585;48.696;10.066;2022-10-26T13:21:07;13.93;;;2.93;;
5133;SDS011;2585;48.696;10.066;2022-10-26T13:23:44;5.50;;;2.40;;
5133;SDS011;2585;48.696;10.066;2022-10-26T13:26:17;8.30;;;2.97;;
5133;SDS011;2585;48.696;10.066;2022-10-26T13:28:46;6.47;;;2.30;;
5133;SDS011;2585;48.696;10.066;2022-10-26T13:34:02;17.67;;;3.30;;
5133;SDS011;2585;48.696;10.066;2022-10-26T13:36:49;8.83;;;2.40;;
5133;SDS011;2585;48.696;10.066;2022-10-26T13:39:22;6.20;;;2.30;;
5133;SDS011;2585;48.696;10.066;2022-10-26T13:41:54;29.93;;;3.63;;
5133;SDS011;2585;48.696;10.066;2022-10-26T13:44:30;14.00;;;3.10;;
5133;SDS011;2585;48.696;10.066;2022-10-26T13:48:02;85.70;;;8.13;;
5133;SDS011;2585;48.696;10.066;2022-10-26T13:50:13;254.57;;;21.60;;
5133;SDS011;2585;48.696;10.066;2022-10-26T13:53:05;8.00;;;2.10;;
5133;SDS011;2585;48.696;10.066;2022-10-26T13:55:38;18.20;;;3.40;;
5133;SDS011;2585;48.696;10.066;2022-10-26T13:58:28;15.00;;;3.23;;
5133;SDS011;2585;48.696;10.066;2022-10-26T14:03:37;8.03;;;2.97;;
5133;SDS011;2585;48.696;10.066;2022-10-26T14:06:05;5.73;;;2.13;;
5133;SDS011;2585;48.696;10.066;2022-10-26T14:08:51;12.47;;;2.33;;
5133;SDS011;2585;48.696;10.066;2022-10-26T14:11:27;5.90;;;2.53;;
5133;SDS011;2585;48.696;10.066;2022-10-26T14:13:58;5.03;;;2.67;;
5133;SDS011;2585;48.696;10.066;2022-10-26T14:16:26;7.37;;;2.40;;
5133;SDS011;2585;48.696;10.066;2022-10-26T14:18:56;6.03;;;2.10;;
5133;SDS011;2585;48.696;10.066;2022-10-26T14:21:23;11.30;;;2.73;;
5133;SDS011;2585;48.696;10.066;2022-10-26T14:23:54;5.53;;;2.23;;
5133;SDS011;2585;48.696;10.066;2022-10-26T14:26:26;5.83;;;2.10;;
5133;SDS011;2585;48.696;10.066;2022-10-26T14:28:56;5.87;;;2.47;;
5133;SDS011;2585;48.696;10.066;2022-10-26T14:31:28;4.67;;;2.10;;
5133;SDS011;2585;48.696;10.066;2022-10-26T14:33:56;7.10;;;2.30;;
5133;SDS011;2585;48.696;10.066;2022-10-26T14:36:26;5.13;;;2.20;;
5133;SDS011;2585;48.696;10.066;2022-10-26T14:39:06;11.53;;;2.90;;
5133;SDS011;2585;48.696;10.066;2022-10-26T14:41:41;7.63;;;2.23;;
5133;SDS011;2585;48.696;10.066;2022-10-26T14:44:13;6.77;;;2.93;;
5133;SDS011;2585;48.696;10.066;2022-10-26T14:46:44;5.37;;;2.17;;
5133;SDS011;2585;48.696;10.066;2022-10-26T14:49:29;6.70;;;2.50;;
5133;SDS011;2585;48.696;10.066;2022-10-26T14:51:56;5.20;;;2.07;;
5133;SDS011;2585;48.696;10.066;2022-10-26T14:54:32;8.57;;;2.27;;
5133;SDS011;2585;48.696;10.066;2022-10-26T14:56:59;9.50;;;2.70;;
5133;SDS011;2585;48.696;10.066;2022-10-26T14:59:33;6.53;;;2.47;;
5133;SDS011;2585;48.696;10.066;2022-10-26T15:02:11;4.90;;;2.47;;
5133;SDS011;2585;48.696;10.066;2022-10-26T15:07:33;17.83;;;2.33;;
5133;SDS011;2585;48.696;10.066;2022-10-26T15:10:02;7.27;;;2.87;;
5133;SDS011;2585;48.696;10.066;2022-10-26T15:12:34;11.13;;;2.93;;
5133;SDS011;2585;48.696;10.066;2022-10-26T15:17:41;13.30;;;2.53;;
5133;SDS011;2585;48.696;10.066;2022-10-26T15:20:23;10.07;;;3.10;;
5133;SDS011;2585;48.696;10.066;2022-10-26T15:22:53;4.47;;;2.57;;
5133;SDS011;2585;48.696;10.066;2022-10-26T15:25:26;9.73;;;2.47;;
5133;SDS011;2585;48.696;10.066;2022-10-26T15:28:20;7.57;;;2.33;;
5133;SDS011;2585;48.696;10.066;2022-10-26T15:33:31;9.33;;;2.33;;
5133;SDS011;2585;48.696;10.066;2022-10-26T15:38:41;4.40;;;2.37;;
5133;SDS011;2585;48.696;10.066;2022-10-26T15:43:46;13.57;;;2.73;;
5133;SDS011;2585;48.696;10.066;2022-10-26T15:46:13;6.23;;;2.30;;
5133;SDS011;2585;48.696;10.066;2022-10-26T15:48:40;9.20;;;2.80;;
5133;SDS011;2585;48.696;10.066;2022-10-26T15:51:11;8.63;;;2.40;;
5133;SDS011;2585;48.696;10.066;2022-10-26T15:53:41;12.63;;;3.13;;
5133;SDS011;2585;48.696;10.066;2022-10-26T15:56:18;5.17;;;2.47;;
5133;SDS011;2585;48.696;10.066;2022-10-26T15:58:48;12.13;;;3.20;;
5133;SDS011;2585;48.696;10.066;2022-10-26T16:01:16;8.67;;;2.20;;
5133;SDS011;2585;48.696;10.066;2022-10-26T16:03:45;15.23;;;2.90;;
5133;SDS011;2585;48.696;10.066;2022-10-26T16:06:14;8.80;;;2.40;;
5133;SDS011;2585;48.696;10.066;2022-10-26T16:08:48;10.83;;;2.63;;
5133;SDS011;2585;48.696;10.066;2022-10-26T16:11:17;3.40;;;2.10;;
5133;SDS011;2585;48.696;10.066;2022-10-26T16:13:44;10.70;;;2.87;;
5133;SDS011;2585;48.696;10.066;2022-10-26T16:16:17;9.07;;;2.33;;
5133;SDS011;2585;48.696;10.066;2022-10-26T16:18:45;6.93;;;2.70;;
5133;SDS011;2585;48.696;10.066;2022-10-26T16:21:15;8.73;;;2.47;;
5133;SDS011;2585;48.696;10.066;2022-10-26T16:23:46;5.90;;;2.10;;
5133;SDS011;2585;48.696;10.066;2022-10-26T16:26:14;12.03;;;3.33;;
5133;SDS011;2585;48.696;10.066;2022-10-26T16:28:41;17.73;;;2.63;;
5133;SDS011;2585;48.696;10.066;2022-10-26T16:31:13;9.50;;;2.00;;
5133;SDS011;2585;48.696;10.066;2022-10-26T16:33:41;7.37;;;2.40;;
5133;SDS011;2585;48.696;10.066;2022-10-26T16:36:09;7.17;;;2.90;;
5133;SDS011;2585;48.696;10.066;2022-10-26T16:38:37;10.20;;;4.43;;
5133;SDS011;2585;48.696;10.066;2022-10-26T16:41:05;11.80;;;6.63;;
5133;SDS011;2585;48.696;10.066;2022-10-26T16:43:35;18.57;;;10.10;;
5133;SDS011;2585;48.696;10.066;2022-10-26T16:46:07;22.23;;;10.43;;
5133;SDS011;2585;48.696;10.066;2022-10-26T16:48:39;10.10;;;5.70;;
5133;SDS011;2585;48.696;10.066;2022-10-26T16:51:08;10.20;;;4.90;;
5133;SDS011;2585;48.696;10.066;2022-10-26T16:53:46;17.23;;;9.07;;
5133;SDS011;2585;48.696;10.066;2022-10-26T16:56:16;23.00;;;13.70;;
5133;SDS011;2585;48.696;10.066;2022-10-26T16:58:45;15.63;;;8.23;;
5133;SDS011;2585;48.696;10.066;2022-10-26T17:01:12;13.77;;;8.67;;
5133;SDS011;2585;48.696;10.066;2022-10-26T17:03:43;19.93;;;8.17;;
5133;SDS011;2585;48.696;10.066;2022-10-26T17:06:11;18.83;;;9.70;;
5133;SDS011;2585;48.696;10.066;2022-10-26T17:08:38;23.33;;;12.10;;
5133;SDS011;2585;48.696;10.066;2022-10-26T17:11:06;26.30;;;12.00;;
5133;SDS011;2585;48.696;10.066;2022-10-26T17:13:38;14.50;;;8.87;;
5133;SDS011;2585;48.696;10.066;2022-10-26T17:16:06;20.10;;;5.60;;
5133;SDS011;2585;48.696;10.066;2022-10-26T17:18:38;6.57;;;3.30;;
5133;SDS011;2585;48.696;10.066;2022-10-26T17:21:06;12.50;;;3.37;;
5133;SDS011;2585;48.696;10.066;2022-10-26T17:23:34;7.40;;;3.87;;
5133;SDS011;2585;48.696;10.066;2022-10-26T17:26:04;5.53;;;2.77;;
5133;SDS011;2585;48.696;10.066;2022-10-26T17:28:33;7.67;;;3.40;;
5133;SDS011;2585;48.696;10.066;2022-10-26T17:31:09;8.10;;;3.10;;
5133;SDS011;2585;48.696;10.066;2022-10-26T17:33:41;8.60;;;2.70;;
5133;SDS011;2585;48.696;10.066;2022-10-26T17:36:10;13.67;;;2.97;;
5133;SDS011;2585;48.696;10.066;2022-10-26T17:38:39;4.47;;;3.20;;
5133;SDS011;2585;48.696;10.066;2022-10-26T17:41:07;12.67;;;3.13;;
5133;SDS011;2585;48.696;10.066;2022-10-26T17:43:36;10.80;;;3.17;;
5133;SDS011;2585;48.696;10.066;2022-10-26T17:46:05;8.50;;;3.07;;
5133;SDS011;2585;48.696;10.066;2022-10-26T17:48:33;12.47;;;4.00;;